createdAt,value
2022-08-08T00:02:30.893Z,82.20
2022-08-08T00:07:34.456Z,82.97
2022-08-08T00:12:56.274Z,82.46
2022-08-08T00:18:04.705Z,80.63
2022-08-08T00:23:14.767Z,81.55
2022-08-08T00:28:35.622Z,82.22
2022-08-08T00:34:18.035Z,81.54
2022-08-08T00:39:36.172Z,81.74
2022-08-08T00:45:21.613Z,81.30
2022-08-08T00:51:21.035Z,82.15
2022-08-08T00:57:04.084Z,82.91
2022-08-08T01:04:00.871Z,82.52
2022-08-08T01:08:39.960Z,82.77
2022-08-08T01:14:16.563Z,83.44
2022-08-08T01:20:02.703Z,84.15
2022-08-08T01:26:05.835Z,82.57
2022-08-08T01:32:13.819Z,83.00
2022-08-08T01:37:58.373Z,84.56
2022-08-08T01:43:38.461Z,85.16
2022-08-08T01:48:58.206Z,84.63
2022-08-08T01:55:17.045Z,83.39
2022-08-08T02:00:02.263Z,84.65
2022-08-08T02:05:56.645Z,83.83
2022-08-08T02:11:23.602Z,84.06
2022-08-08T02:16:44.747Z,85.41
2022-08-08T02:22:13.253Z,85.16
2022-08-08T02:27:22.853Z,86.44
2022-08-08T02:32:40.926Z,86.47
2022-08-08T02:38:15.742Z,85.96
2022-08-08T02:44:42.531Z,86.51
2022-08-08T02:50:04.847Z,86.62
2022-08-08T02:55:25.161Z,85.58
2022-08-08T03:01:32.458Z,85.52
2022-08-08T03:07:26.824Z,85.02
2022-08-08T03:15:53.969Z,85.53
2022-08-08T03:19:01.580Z,85.56
2022-08-08T03:24:07.128Z,84.92
2022-08-08T03:29:20.868Z,86.07
2022-08-08T03:34:32.195Z,85.53
2022-08-08T03:39:52.098Z,85.16
2022-08-08T03:45:02.123Z,85.45
2022-08-08T03:50:27.702Z,86.09
2022-08-08T03:55:57.537Z,86.37
2022-08-08T04:01:02.839Z,86.68
2022-08-08T04:06:22.658Z,85.73
2022-08-08T04:11:28.466Z,86.02
2022-08-08T04:16:38.991Z,85.49
2022-08-08T04:21:46.758Z,84.85
2022-08-08T04:26:57.939Z,84.79
2022-08-08T04:32:02.812Z,84.35
2022-08-08T04:37:11.614Z,82.94
2022-08-08T04:42:18.010Z,82.60
2022-08-08T04:47:21.910Z,82.84
2022-08-08T04:52:34.039Z,81.60
2022-08-08T04:57:43.186Z,81.10
2022-08-08T05:02:47.315Z,79.33
2022-08-08T05:07:57.730Z,78.57
2022-08-08T05:13:03.757Z,75.74
2022-08-08T05:18:16.301Z,74.58
2022-08-08T05:23:21.404Z,73.35
2022-08-08T05:28:48.213Z,72.26
2022-08-08T05:33:50.587Z,73.02
2022-08-08T05:38:55.430Z,71.76
2022-08-08T05:44:07.371Z,70.70
2022-08-08T05:49:11.807Z,70.06
2022-08-08T05:54:28.284Z,69.26
2022-08-08T06:00:00.496Z,68.55
2022-08-08T06:05:33.822Z,66.56
2022-08-08T06:10:43.358Z,63.54
2022-08-08T06:15:53.505Z,57.72
2022-08-08T06:21:28.350Z,47.09
2022-08-08T06:26:50.268Z,43.10
2022-08-08T06:32:10.480Z,41.25
2022-08-08T06:37:25.572Z,37.75
2022-08-08T06:42:37.257Z,34.64
2022-08-08T06:47:52.464Z,33.23
2022-08-08T06:53:09.881Z,33.31
2022-08-08T06:58:22.698Z,31.23
2022-08-08T07:03:51.905Z,31.02
2022-08-08T07:09:06.170Z,30.12
2022-08-08T07:14:19.292Z,30.41
2022-08-08T07:19:34.481Z,33.02
2022-08-08T07:24:46.538Z,30.26
2022-08-08T07:30:02.069Z,30.22
2022-08-08T07:35:14.708Z,29.66
2022-08-08T07:40:29.470Z,30.31
2022-08-08T07:46:04.982Z,28.62
2022-08-08T07:51:04.230Z,27.59
2022-08-08T07:56:35.828Z,27.19
2022-08-08T08:02:36.323Z,27.95
2022-08-08T08:07:17.531Z,24.73
2022-08-08T08:12:31.414Z,23.79
2022-08-08T08:17:49.061Z,23.94
2022-08-08T08:23:00.736Z,25.72
2022-08-08T08:28:04.869Z,25.28
2022-08-08T08:33:13.355Z,25.50
2022-08-08T08:38:19.684Z,27.14
2022-08-08T08:43:32.894Z,29.96
2022-08-08T08:48:38.412Z,30.65
2022-08-08T08:54:00.890Z,29.51
2022-08-08T08:59:15.379Z,26.54
2022-08-08T09:04:37.927Z,27.38
2022-08-08T09:09:57.490Z,28.49
2022-08-08T09:15:37.200Z,29.26
2022-08-08T09:22:02.791Z,30.17
2022-08-08T09:26:17.299Z,32.16
2022-08-08T09:31:42.605Z,33.29
2022-08-08T09:37:46.281Z,35.91
2022-08-08T09:42:44.408Z,35.94
2022-08-08T09:48:09.847Z,36.51
2022-08-08T09:53:32.965Z,35.13
2022-08-08T09:58:57.816Z,34.71
2022-08-08T10:04:04.676Z,34.84
2022-08-08T10:09:08.807Z,33.98
2022-08-08T10:14:28.415Z,35.73
2022-08-08T10:19:46.149Z,35.43
2022-08-08T10:25:05.558Z,34.14
2022-08-08T10:30:16.169Z,33.69
2022-08-08T10:36:09.302Z,36.86
2022-08-08T10:41:05.031Z,33.97
2022-08-08T10:46:29.496Z,34.20
2022-08-08T10:51:47.554Z,32.77
2022-08-08T10:56:58.444Z,34.31
2022-08-08T11:02:04.805Z,35.63
2022-08-08T11:07:11.487Z,34.12
2022-08-08T11:12:38.371Z,34.03
2022-08-08T11:17:59.934Z,33.29
2022-08-08T11:23:06.384Z,31.30
2022-08-08T11:28:10.295Z,33.08
2022-08-08T11:33:15.314Z,33.91
2022-08-08T11:38:38.818Z,34.24
2022-08-08T11:43:45.618Z,32.88
2022-08-08T11:48:54.840Z,32.29
2022-08-08T11:54:01.159Z,33.22
2022-08-08T11:59:11.195Z,32.62
2022-08-08T12:04:16.743Z,33.35
2022-08-08T12:09:59.560Z,34.08
2022-08-08T12:15:03.234Z,32.38
2022-08-08T12:20:11.036Z,34.28
2022-08-08T12:25:29.783Z,35.53
2022-08-08T12:30:36.066Z,36.40
2022-08-08T12:35:52.436Z,36.20
2022-08-08T12:40:59.229Z,36.45
2022-08-08T12:46:19.201Z,36.06
2022-08-08T12:51:40.658Z,36.09
2022-08-08T12:56:54.332Z,36.33
2022-08-08T13:01:59.569Z,36.26
2022-08-08T13:07:06.852Z,35.64
2022-08-08T13:12:28.114Z,35.07
2022-08-08T13:18:09.716Z,34.62
2022-08-08T13:23:30.670Z,32.83
2022-08-08T13:28:32.306Z,32.63
2022-08-08T13:33:42.399Z,29.60
2022-08-08T13:38:47.868Z,31.11
2022-08-08T13:43:51.412Z,32.15
2022-08-08T13:50:33.200Z,32.58
2022-08-08T13:54:29.520Z,33.82
2022-08-08T13:59:39.209Z,31.99
2022-08-08T14:04:54.051Z,31.37
2022-08-08T14:10:05.636Z,30.48
2022-08-08T14:15:31.654Z,31.46
2022-08-08T14:20:56.989Z,30.18
2022-08-08T14:26:10.966Z,28.44
2022-08-08T14:31:20.409Z,27.44
2022-08-08T14:36:34.951Z,26.12
2022-08-08T14:41:45.555Z,25.70
2022-08-08T14:47:00.206Z,25.61
2022-08-08T14:52:09.149Z,24.45
2022-08-08T14:57:16.388Z,26.10
2022-08-08T15:02:25.686Z,28.64
2022-08-08T15:07:39.526Z,31.04
2022-08-08T15:12:47.394Z,31.35
2022-08-08T15:17:51.161Z,29.54
2022-08-08T15:22:54.541Z,29.21
2022-08-08T15:28:04.080Z,28.27
2022-08-08T15:33:35.531Z,31.71
2022-08-08T15:38:49.608Z,32.07
2022-08-08T15:44:00.681Z,31.14
2022-08-08T15:49:05.317Z,32.02
2022-08-08T15:54:18.750Z,33.05
2022-08-08T16:00:25.266Z,34.19
2022-08-08T16:04:58.446Z,36.32
2022-08-08T16:13:15.357Z,36.65
2022-08-08T16:15:27.437Z,37.53
2022-08-08T16:20:36.119Z,38.54
2022-08-08T16:25:45.945Z,40.13
2022-08-08T16:30:57.854Z,40.06
2022-08-08T16:36:01.826Z,40.70
2022-08-08T16:41:08.768Z,42.05
2022-08-08T16:46:36.445Z,42.58
2022-08-08T16:55:01.174Z,43.39
2022-08-08T16:57:22.863Z,43.16
2022-08-08T17:02:38.043Z,43.47
2022-08-08T17:07:42.678Z,43.34
2022-08-08T17:12:52.876Z,43.00
2022-08-08T17:18:02.563Z,43.16
2022-08-08T17:23:17.750Z,43.38
2022-08-08T17:28:35.479Z,45.07
2022-08-08T17:34:36.523Z,45.48
2022-08-08T17:39:45.937Z,46.42
2022-08-08T17:44:29.809Z,47.98
2022-08-08T17:49:42.847Z,48.54
2022-08-08T17:54:47.068Z,48.58
2022-08-08T18:00:02.415Z,49.80
2022-08-08T18:05:22.421Z,49.94
2022-08-08T18:10:31.752Z,51.38
2022-08-08T18:15:38.132Z,51.27
2022-08-08T18:20:54.779Z,52.99
2022-08-08T18:26:04.149Z,53.24
2022-08-08T18:31:08.600Z,53.71
2022-08-08T18:36:22.875Z,54.55
2022-08-08T18:41:51.855Z,55.34
2022-08-08T18:47:00.779Z,56.20
2022-08-08T18:52:06.137Z,56.90
2022-08-08T18:57:11.148Z,58.70
2022-08-08T19:02:27.816Z,58.42
2022-08-08T19:07:38.517Z,59.19
2022-08-08T19:13:20.694Z,59.18
2022-08-08T19:18:33.594Z,59.92
2022-08-08T19:23:53.458Z,61.68
2022-08-08T19:29:00.014Z,61.41
2022-08-08T19:34:35.562Z,62.19
2022-08-08T19:39:35.136Z,63.56
2022-08-08T19:44:45.393Z,62.46
2022-08-08T19:49:59.427Z,63.84
2022-08-08T19:55:08.955Z,63.75
2022-08-08T20:00:29.946Z,64.92
2022-08-08T20:06:14.820Z,65.70
2022-08-08T20:11:00.844Z,66.28
2022-08-08T20:16:04.984Z,67.09
2022-08-08T20:21:08.339Z,67.07
2022-08-08T20:26:16.086Z,67.81
2022-08-08T20:31:19.852Z,68.12
2022-08-08T20:36:25.086Z,69.12
2022-08-08T20:41:32.060Z,70.07
2022-08-08T20:46:37.750Z,69.58
2022-08-08T20:51:41.404Z,71.16
2022-08-08T20:57:16.216Z,71.76
2022-08-08T21:02:14.388Z,71.35
2022-08-08T21:07:47.747Z,71.28
2022-08-08T21:12:53.024Z,70.24
2022-08-08T21:17:57.967Z,70.59
2022-08-08T21:23:01.299Z,70.59
2022-08-08T21:28:16.070Z,71.29
2022-08-08T21:33:21.282Z,71.66
2022-08-08T21:38:25.506Z,72.55
2022-08-08T21:43:34.408Z,73.59
2022-08-08T21:48:41.822Z,73.53
2022-08-08T21:54:32.491Z,74.12
2022-08-08T21:59:15.186Z,74.65
2022-08-08T22:04:18.722Z,75.06
2022-08-08T22:09:26.902Z,75.26
2022-08-08T22:14:42.736Z,76.89
2022-08-08T22:20:10.576Z,76.01
2022-08-08T22:25:12.475Z,76.72
2022-08-08T22:30:30.189Z,77.58
2022-08-08T22:36:05.198Z,77.97
2022-08-08T22:40:57.465Z,78.45
2022-08-08T22:46:02.484Z,77.81
2022-08-08T22:51:07.444Z,78.39
2022-08-08T22:56:11.290Z,79.04
2022-08-08T23:02:02.129Z,79.00
2022-08-08T23:06:39.419Z,79.53
2022-08-08T23:12:28.502Z,81.41
2022-08-08T23:17:07.852Z,80.68
2022-08-08T23:22:11.547Z,82.32
2022-08-08T23:27:37.976Z,82.94
2022-08-08T23:32:44.101Z,82.63
2022-08-08T23:38:03.039Z,83.34
2022-08-08T23:43:07.056Z,84.79
2022-08-08T23:49:00.923Z,83.02
2022-08-08T23:54:06.430Z,84.70
2022-08-08T23:59:00.145Z,85.50
